createdAt,value
2022-10-10T00:00:14.298Z,11.05
2022-10-10T00:01:48.919Z,11.07
2022-10-10T00:03:21.615Z,11.05
2022-10-10T00:04:54.882Z,11.03
2022-10-10T00:06:32.746Z,11.04
2022-10-10T00:08:07.206Z,11.03
2022-10-10T00:09:40.456Z,11.06
2022-10-10T00:11:15.201Z,11.05
2022-10-10T00:12:48.844Z,11.02
2022-10-10T00:14:22.590Z,11.00
2022-10-10T00:15:54.842Z,10.98
2022-10-10T00:17:29.559Z,10.97
2022-10-10T00:19:02.717Z,10.96
2022-10-10T00:20:35.005Z,10.94
2022-10-10T00:22:08.391Z,10.96
2022-10-10T00:23:40.781Z,10.98
2022-10-10T00:25:15.217Z,11.00
2022-10-10T00:26:48.911Z,11.01
2022-10-10T00:28:22.419Z,11.00
2022-10-10T00:29:55.781Z,10.95
2022-10-10T00:31:29.029Z,10.81
2022-10-10T00:33:02.627Z,10.79
2022-10-10T00:34:35.986Z,10.78
2022-10-10T00:36:09.243Z,10.79
2022-10-10T00:37:41.476Z,10.74
2022-10-10T00:39:14.843Z,10.76
2022-10-10T00:40:48.715Z,10.72
2022-10-10T00:42:21.996Z,10.75
2022-10-10T00:44:06.154Z,10.76
2022-10-10T00:45:42.133Z,10.75
2022-10-10T00:47:15.356Z,10.74
2022-10-10T00:48:49.911Z,10.75
2022-10-10T00:50:23.901Z,10.78
2022-10-10T00:52:00.513Z,10.77
2022-10-10T00:53:37.839Z,10.74
2022-10-10T00:55:12.432Z,10.72
2022-10-10T00:56:48.294Z,10.72
2022-10-10T00:58:22.961Z,10.68
2022-10-10T00:59:56.593Z,10.65
2022-10-10T01:01:29.860Z,10.57
2022-10-10T01:03:02.131Z,10.49
2022-10-10T01:04:45.040Z,10.48
2022-10-10T01:06:18.796Z,10.43
2022-10-10T01:07:52.122Z,10.42
2022-10-10T01:09:25.428Z,10.42
2022-10-10T01:11:17.488Z,10.43
2022-10-10T01:13:00.099Z,10.46
2022-10-10T01:14:40.557Z,10.47
2022-10-10T01:16:24.155Z,10.50
2022-10-10T01:18:06.965Z,10.53
2022-10-10T01:20:18.708Z,10.55
2022-10-10T01:22:03.403Z,10.54
2022-10-10T01:24:05.752Z,10.54
2022-10-10T01:25:50.784Z,10.52
2022-10-10T01:27:31.473Z,10.51
2022-10-10T01:29:13.591Z,10.51
2022-10-10T01:30:48.181Z,10.55
2022-10-10T01:32:29.660Z,10.62
2022-10-10T01:34:08.663Z,10.68
2022-10-10T01:35:52.332Z,10.70
2022-10-10T01:37:34.888Z,10.70
2022-10-10T01:39:14.708Z,10.65
2022-10-10T01:40:52.870Z,10.64
2022-10-10T01:42:33.085Z,10.62
2022-10-10T01:44:07.634Z,10.59
2022-10-10T01:45:44.411Z,10.57
2022-10-10T01:47:17.761Z,10.58
2022-10-10T01:48:54.845Z,10.57
2022-10-10T01:50:27.968Z,10.56
2022-10-10T01:52:14.727Z,10.58
2022-10-10T01:53:56.036Z,10.59
2022-10-10T01:55:37.226Z,10.63
2022-10-10T01:57:21.869Z,10.65
2022-10-10T01:59:17.274Z,10.62
2022-10-10T02:00:56.229Z,10.60
2022-10-10T02:02:40.791Z,10.61
2022-10-10T02:04:23.004Z,10.59
2022-10-10T02:06:01.273Z,10.57
2022-10-10T02:07:40.789Z,10.57
2022-10-10T02:09:18.733Z,10.55
2022-10-10T02:10:56.928Z,10.52
2022-10-10T02:12:32.759Z,10.49
2022-10-10T02:14:10.633Z,10.52
2022-10-10T02:15:50.935Z,10.52
2022-10-10T02:17:27.541Z,10.50
2022-10-10T02:19:01.620Z,10.44
2022-10-10T02:20:35.259Z,10.37
2022-10-10T02:22:08.801Z,10.30
2022-10-10T02:23:43.982Z,10.20
2022-10-10T02:25:16.977Z,10.15
2022-10-10T02:26:59.422Z,10.18
2022-10-10T02:28:39.521Z,10.13
2022-10-10T02:30:14.623Z,10.12
2022-10-10T02:31:55.863Z,10.12
2022-10-10T02:33:32.788Z,10.15
2022-10-10T02:35:09.785Z,10.13
2022-10-10T02:36:47.879Z,10.14
2022-10-10T02:38:21.874Z,10.16
2022-10-10T02:39:59.378Z,10.18
2022-10-10T02:41:34.862Z,10.20
2022-10-10T02:43:09.383Z,10.23
2022-10-10T02:44:42.573Z,10.22
2022-10-10T02:46:16.299Z,10.22
2022-10-10T02:47:52.284Z,10.15
2022-10-10T02:49:28.063Z,10.18
2022-10-10T02:51:01.307Z,10.14
2022-10-10T02:52:34.579Z,10.14
2022-10-10T02:54:08.129Z,10.11
2022-10-10T02:55:41.405Z,10.00
2022-10-10T02:57:13.770Z,10.07
2022-10-10T02:58:46.930Z,10.10
2022-10-10T03:00:20.820Z,10.06
2022-10-10T03:01:55.427Z,10.09
2022-10-10T03:03:30.008Z,10.08
2022-10-10T03:05:02.164Z,10.11
2022-10-10T03:06:36.786Z,10.14
2022-10-10T03:08:11.816Z,10.13
2022-10-10T03:09:45.161Z,10.14
2022-10-10T03:11:18.359Z,10.12
2022-10-10T03:12:52.092Z,10.07
2022-10-10T03:14:24.607Z,10.05
2022-10-10T03:15:57.857Z,9.94
2022-10-10T03:17:31.051Z,10.04
2022-10-10T03:19:08.403Z,10.05
2022-10-10T03:20:41.728Z,10.07
2022-10-10T03:22:14.894Z,10.12
2022-10-10T03:23:48.022Z,10.13
2022-10-10T03:25:21.266Z,10.14
2022-10-10T03:26:54.111Z,10.13
2022-10-10T03:28:27.266Z,10.15
2022-10-10T03:29:59.521Z,10.15
2022-10-10T03:31:33.653Z,10.19
2022-10-10T03:33:06.755Z,10.20
2022-10-10T03:34:41.298Z,10.20
2022-10-10T03:36:14.511Z,10.21
2022-10-10T03:37:47.847Z,10.19
2022-10-10T03:39:20.190Z,10.20
2022-10-10T03:40:53.341Z,10.18
2022-10-10T03:42:26.565Z,10.17
2022-10-10T03:43:59.914Z,10.15
2022-10-10T03:45:33.120Z,10.11
2022-10-10T03:47:06.455Z,10.06
2022-10-10T03:48:38.571Z,10.01
2022-10-10T03:50:13.512Z,9.95
2022-10-10T03:51:46.799Z,9.96
2022-10-10T03:53:20.029Z,9.93
2022-10-10T03:54:53.137Z,9.92
2022-10-10T03:56:25.406Z,9.92
2022-10-10T03:57:58.940Z,9.90
2022-10-10T03:59:32.055Z,9.89
2022-10-10T04:01:05.736Z,9.91
2022-10-10T04:02:38.951Z,9.92
2022-10-10T04:04:12.210Z,9.92
2022-10-10T04:05:45.719Z,9.95
2022-10-10T04:07:18.820Z,9.95
2022-10-10T04:08:52.291Z,9.94
2022-10-10T04:10:25.672Z,9.94
2022-10-10T04:11:59.700Z,9.94
2022-10-10T04:13:32.871Z,9.97
2022-10-10T04:15:06.058Z,9.99
2022-10-10T04:16:39.312Z,10.01
2022-10-10T04:18:12.668Z,10.00
2022-10-10T04:19:45.783Z,9.97
2022-10-10T04:21:20.664Z,9.99
2022-10-10T04:22:54.292Z,10.02
2022-10-10T04:24:27.690Z,10.06
2022-10-10T04:26:00.974Z,10.08
2022-10-10T04:27:34.472Z,10.09
2022-10-10T04:29:07.835Z,10.04
2022-10-10T04:30:41.615Z,10.12
2022-10-10T04:32:13.908Z,10.12
2022-10-10T04:33:47.227Z,10.13
2022-10-10T04:35:19.674Z,10.06
2022-10-10T04:36:54.193Z,10.00
2022-10-10T04:38:27.535Z,9.94
2022-10-10T04:40:00.776Z,9.96
2022-10-10T04:41:34.417Z,9.92
2022-10-10T04:43:07.561Z,9.97
2022-10-10T04:44:40.756Z,9.99
2022-10-10T04:46:13.350Z,10.04
2022-10-10T04:47:46.693Z,10.07
2022-10-10T04:49:18.889Z,10.08
2022-10-10T04:50:55.823Z,10.07
2022-10-10T04:52:30.678Z,10.07
2022-10-10T04:54:03.934Z,10.10
2022-10-10T04:55:37.165Z,10.16
2022-10-10T04:57:10.401Z,10.23
2022-10-10T04:58:43.632Z,10.27
2022-10-10T05:00:17.157Z,10.28
2022-10-10T05:01:50.278Z,10.28
2022-10-10T05:03:24.535Z,10.36
2022-10-10T05:04:56.877Z,10.45
2022-10-10T05:06:30.224Z,10.55
2022-10-10T05:08:04.964Z,10.67
2022-10-10T05:09:37.124Z,10.75
2022-10-10T05:11:10.548Z,10.84
2022-10-10T05:12:43.873Z,10.96
2022-10-10T05:14:17.036Z,11.02
2022-10-10T05:15:52.786Z,11.11
2022-10-10T05:17:26.248Z,11.15
2022-10-10T05:18:59.802Z,11.16
2022-10-10T05:20:34.051Z,11.20
2022-10-10T05:22:07.300Z,11.27
2022-10-10T05:23:42.472Z,11.27
2022-10-10T05:25:15.844Z,11.32
2022-10-10T05:26:49.027Z,11.35
2022-10-10T05:28:22.436Z,11.45
2022-10-10T05:29:55.958Z,11.51
2022-10-10T05:31:30.369Z,11.54
2022-10-10T05:33:03.753Z,11.59
2022-10-10T05:34:36.940Z,11.63
2022-10-10T05:36:13.217Z,11.70
2022-10-10T05:37:46.674Z,11.79
2022-10-10T05:39:21.311Z,11.89
2022-10-10T05:40:56.701Z,12.12
2022-10-10T05:42:30.089Z,12.44
2022-10-10T05:44:03.317Z,12.82
2022-10-10T05:45:36.554Z,13.18
2022-10-10T05:47:09.788Z,13.34
2022-10-10T05:48:43.455Z,13.68
2022-10-10T05:50:28.935Z,13.91
2022-10-10T05:52:02.180Z,14.14
2022-10-10T05:53:35.323Z,14.32
2022-10-10T05:55:10.580Z,14.47
2022-10-10T05:56:44.227Z,14.79
2022-10-10T05:58:17.599Z,15.17
2022-10-10T05:59:50.799Z,15.54
2022-10-10T06:01:24.119Z,15.87
2022-10-10T06:02:58.680Z,16.15
2022-10-10T06:04:32.274Z,16.18
2022-10-10T06:06:07.147Z,16.18
2022-10-10T06:08:04.303Z,16.15
2022-10-10T06:09:34.131Z,15.68
2022-10-10T06:11:09.199Z,15.31
2022-10-10T06:12:42.538Z,15.01
2022-10-10T06:14:15.703Z,14.77
2022-10-10T06:15:52.378Z,14.61
2022-10-10T06:17:25.528Z,14.21
2022-10-10T06:18:58.892Z,14.13
2022-10-10T06:20:32.058Z,14.08
2022-10-10T06:22:05.596Z,14.05
2022-10-10T06:23:38.852Z,14.08
2022-10-10T06:25:29.104Z,14.08
2022-10-10T06:27:07.148Z,14.18
2022-10-10T06:28:40.684Z,14.21
2022-10-10T06:30:14.597Z,14.23
2022-10-10T06:31:47.822Z,14.22
2022-10-10T06:33:21.463Z,14.24
2022-10-10T06:34:54.679Z,14.25
2022-10-10T06:36:27.926Z,14.21
2022-10-10T06:38:01.118Z,14.22
2022-10-10T06:39:34.365Z,14.21
2022-10-10T06:41:08.315Z,14.34
2022-10-10T06:42:42.990Z,14.39
2022-10-10T06:44:17.907Z,14.39
2022-10-10T06:45:52.079Z,14.42
2022-10-10T06:47:25.356Z,14.49
2022-10-10T06:48:58.823Z,14.66
2022-10-10T06:50:32.169Z,14.79
2022-10-10T06:52:05.319Z,14.96
2022-10-10T06:53:38.462Z,15.12
2022-10-10T06:55:11.851Z,15.25
2022-10-10T06:56:45.099Z,15.45
2022-10-10T06:58:19.756Z,15.66
2022-10-10T06:59:52.892Z,15.89
2022-10-10T07:01:27.304Z,16.41
2022-10-10T07:03:00.501Z,17.02
2022-10-10T07:04:33.675Z,17.61
2022-10-10T07:06:10.565Z,18.05
2022-10-10T07:07:44.513Z,18.55
2022-10-10T07:09:18.902Z,18.96
2022-10-10T07:10:52.662Z,19.23
2022-10-10T07:12:29.091Z,19.46
2022-10-10T07:14:04.908Z,19.62
2022-10-10T07:15:38.139Z,19.84
2022-10-10T07:17:11.393Z,19.82
2022-10-10T07:18:44.535Z,19.81
2022-10-10T07:20:17.930Z,19.77
2022-10-10T07:21:51.086Z,19.72
2022-10-10T07:23:24.571Z,19.74
2022-10-10T07:24:57.762Z,19.94
2022-10-10T07:26:37.003Z,20.12
2022-10-10T07:28:11.195Z,20.10
2022-10-10T07:29:46.153Z,19.88
2022-10-10T07:31:19.383Z,19.97
2022-10-10T07:32:54.394Z,20.02
2022-10-10T07:34:27.802Z,20.10
2022-10-10T07:36:01.163Z,20.47
2022-10-10T07:37:34.450Z,20.49
2022-10-10T07:39:07.908Z,20.62
2022-10-10T07:40:41.906Z,20.83
2022-10-10T07:42:15.276Z,21.23
2022-10-10T07:43:48.491Z,21.16
2022-10-10T07:45:23.358Z,21.27
2022-10-10T07:46:56.500Z,21.40
2022-10-10T07:48:29.628Z,21.23
2022-10-10T07:50:02.876Z,21.34
2022-10-10T07:51:36.628Z,21.51
2022-10-10T07:53:09.901Z,21.59
2022-10-10T07:54:43.486Z,21.49
2022-10-10T07:56:16.732Z,21.70
2022-10-10T07:57:53.393Z,21.71
2022-10-10T07:59:27.031Z,21.94
2022-10-10T08:01:06.042Z,22.08
2022-10-10T08:02:39.258Z,22.42
2022-10-10T08:04:12.680Z,22.67
2022-10-10T08:05:47.066Z,22.58
2022-10-10T08:07:20.592Z,22.66
2022-10-10T08:08:53.814Z,22.69
2022-10-10T08:10:28.727Z,22.48
2022-10-10T08:12:02.098Z,22.38
2022-10-10T08:13:36.194Z,22.57
2022-10-10T08:16:50.328Z,22.97
2022-10-10T08:18:23.648Z,23.01
2022-10-10T08:19:57.028Z,23.15
2022-10-10T08:21:30.253Z,23.38
2022-10-10T08:23:03.520Z,23.37
2022-10-10T08:24:36.692Z,23.49
2022-10-10T08:26:12.202Z,23.08
2022-10-10T08:27:45.374Z,22.99
2022-10-10T08:29:18.747Z,23.10
2022-10-10T08:30:52.175Z,23.22
2022-10-10T08:32:26.973Z,23.45
2022-10-10T08:34:00.151Z,23.63
2022-10-10T08:35:33.683Z,23.76
2022-10-10T08:37:06.931Z,23.72
2022-10-10T08:38:40.051Z,23.88
2022-10-10T08:40:16.324Z,23.97
2022-10-10T08:41:52.403Z,23.88
2022-10-10T08:43:34.284Z,23.63
2022-10-10T08:45:14.185Z,23.52
2022-10-10T08:46:51.478Z,23.33
2022-10-10T08:48:30.261Z,23.30
2022-10-10T08:50:07.044Z,23.29
2022-10-10T08:51:43.856Z,23.43
2022-10-10T08:53:25.071Z,23.50
2022-10-10T08:55:01.660Z,23.67
2022-10-10T08:56:36.190Z,23.61
2022-10-10T08:58:18.008Z,23.34
2022-10-10T09:01:32.691Z,23.04
2022-10-10T09:03:14.221Z,22.99
2022-10-10T09:04:48.922Z,22.95
2022-10-10T09:06:34.123Z,22.93
2022-10-10T09:08:23.267Z,22.78
2022-10-10T09:10:07.719Z,22.62
2022-10-10T09:11:52.936Z,22.46
2022-10-10T09:13:34.495Z,22.30
2022-10-10T09:15:16.091Z,22.32
2022-10-10T09:16:56.320Z,22.35
2022-10-10T09:18:46.913Z,22.37
2022-10-10T09:20:38.089Z,22.35
2022-10-10T09:22:15.911Z,22.26
2022-10-10T09:25:31.013Z,22.18
2022-10-10T09:27:06.620Z,22.36
2022-10-10T09:28:44.524Z,22.41
2022-10-10T09:30:21.067Z,22.36
2022-10-10T09:31:59.796Z,22.33
2022-10-10T09:33:37.573Z,22.39
2022-10-10T09:35:17.776Z,22.50
2022-10-10T09:36:56.075Z,22.34
2022-10-10T09:38:38.137Z,22.26
2022-10-10T09:40:18.821Z,22.38
2022-10-10T09:41:58.854Z,22.47
2022-10-10T09:43:34.962Z,22.54
2022-10-10T09:45:17.566Z,22.56
2022-10-10T09:46:50.993Z,22.58
2022-10-10T09:48:30.341Z,22.67
2022-10-10T09:51:42.689Z,22.83
2022-10-10T09:53:17.924Z,22.99
2022-10-10T09:54:52.475Z,23.01
2022-10-10T09:56:28.208Z,23.05
2022-10-10T09:58:05.835Z,23.17
2022-10-10T09:59:42.150Z,23.02
2022-10-10T10:01:18.889Z,22.97
2022-10-10T10:03:04.856Z,22.80
2022-10-10T10:04:38.433Z,22.84
2022-10-10T10:06:15.143Z,22.92
2022-10-10T10:07:48.933Z,22.92
2022-10-10T10:09:24.444Z,23.04
2022-10-10T10:11:01.731Z,23.03
2022-10-10T10:12:41.373Z,22.89
2022-10-10T10:14:29.272Z,23.00
2022-10-10T10:16:05.714Z,23.01
2022-10-10T10:17:38.897Z,22.99
2022-10-10T10:19:32.144Z,23.06
2022-10-10T10:21:20.505Z,23.05
2022-10-10T10:22:53.736Z,23.06
2022-10-10T10:24:36.392Z,23.11
2022-10-10T10:26:17.660Z,23.18
2022-10-10T10:27:50.928Z,23.30
2022-10-10T10:29:32.511Z,23.38
2022-10-10T10:31:06.303Z,23.44
2022-10-10T10:32:48.330Z,23.44
2022-10-10T10:34:40.843Z,23.38
2022-10-10T10:36:28.236Z,23.37
2022-10-10T10:38:20.137Z,23.35
2022-10-10T10:40:18.764Z,23.32
2022-10-10T10:41:57.819Z,23.46
2022-10-10T10:43:49.500Z,23.47
2022-10-10T10:45:33.486Z,23.56
2022-10-10T10:47:20.195Z,23.49
2022-10-10T10:49:02.205Z,23.61
2022-10-10T10:50:46.249Z,23.61
2022-10-10T10:52:40.348Z,23.69
2022-10-10T10:54:31.538Z,23.72
2022-10-10T10:56:18.179Z,23.80
2022-10-10T10:58:54.997Z,23.93
2022-10-10T11:00:22.181Z,23.85
2022-10-10T11:02:43.698Z,23.99
2022-10-10T11:05:19.017Z,24.08
2022-10-10T11:07:17.869Z,24.13
2022-10-10T11:09:03.092Z,23.98
2022-10-10T11:10:42.437Z,23.98
2022-10-10T11:12:38.736Z,23.98
2022-10-10T11:14:26.719Z,24.01
2022-10-10T11:16:10.040Z,24.05
2022-10-10T11:17:58.143Z,24.12
2022-10-10T11:19:35.777Z,24.16
2022-10-10T11:21:15.845Z,24.16
2022-10-10T11:22:53.609Z,24.17
2022-10-10T11:24:38.600Z,24.10
2022-10-10T11:26:19.824Z,24.00
2022-10-10T11:28:00.308Z,23.90
2022-10-10T11:29:40.156Z,23.91
2022-10-10T11:31:22.295Z,23.90
2022-10-10T11:33:00.308Z,23.93
2022-10-10T11:34:39.766Z,23.94
2022-10-10T11:36:17.329Z,23.99
2022-10-10T11:37:58.866Z,24.07
2022-10-10T11:39:40.160Z,24.12
2022-10-10T11:41:17.350Z,24.11
2022-10-10T11:42:57.955Z,24.18
2022-10-10T11:44:37.844Z,24.21
2022-10-10T11:46:22.818Z,24.15
2022-10-10T11:48:01.881Z,24.05
2022-10-10T11:49:45.110Z,23.97
2022-10-10T11:51:37.376Z,23.97
2022-10-10T11:53:20.359Z,23.97
2022-10-10T11:55:00.579Z,23.96
2022-10-10T11:56:39.217Z,23.95
2022-10-10T11:58:29.140Z,23.90
2022-10-10T12:00:07.696Z,23.91
2022-10-10T12:01:47.819Z,23.88
2022-10-10T12:03:21.600Z,23.90
2022-10-10T12:04:55.057Z,23.97
2022-10-10T12:06:34.796Z,24.04
2022-10-10T12:08:18.064Z,24.07
2022-10-10T12:09:55.624Z,24.06
2022-10-10T12:11:33.818Z,24.10
2022-10-10T12:13:23.843Z,24.11
2022-10-10T12:15:03.221Z,24.08
2022-10-10T12:16:38.900Z,24.09
2022-10-10T12:18:25.656Z,24.08
2022-10-10T12:20:11.439Z,24.07
2022-10-10T12:22:05.075Z,24.08
2022-10-10T12:23:41.278Z,24.11
2022-10-10T12:25:26.012Z,24.12
2022-10-10T12:27:28.186Z,24.14
2022-10-10T12:29:05.553Z,24.16
2022-10-10T12:31:18.943Z,24.09
2022-10-10T12:32:54.344Z,24.10
2022-10-10T12:34:45.091Z,24.09
2022-10-10T12:36:55.900Z,23.99
2022-10-10T12:38:29.502Z,23.89
2022-10-10T12:40:29.938Z,23.97
2022-10-10T12:42:03.748Z,23.88
2022-10-10T12:43:51.046Z,23.86
2022-10-10T12:46:09.907Z,23.83
2022-10-10T12:48:04.474Z,23.78
2022-10-10T12:49:39.830Z,23.73
2022-10-10T12:51:21.895Z,23.71
2022-10-10T12:52:59.030Z,23.67
2022-10-10T12:54:38.898Z,23.64
2022-10-10T12:56:14.027Z,23.62
2022-10-10T12:57:49.771Z,23.62
2022-10-10T12:59:25.592Z,23.65
2022-10-10T13:01:03.510Z,23.72
2022-10-10T13:02:37.199Z,23.73
2022-10-10T13:04:10.642Z,23.75
2022-10-10T13:05:45.016Z,23.78
2022-10-10T13:07:22.130Z,23.82
2022-10-10T13:08:57.059Z,23.77
2022-10-10T13:10:31.810Z,23.67
2022-10-10T13:12:07.424Z,23.79
2022-10-10T13:13:41.531Z,23.80
2022-10-10T13:15:24.173Z,23.84
2022-10-10T13:16:59.024Z,23.77
2022-10-10T13:18:36.891Z,23.61
2022-10-10T13:20:29.142Z,23.54
2022-10-10T13:22:02.576Z,23.50
2022-10-10T13:23:37.453Z,23.45
2022-10-10T13:25:12.399Z,23.46
2022-10-10T13:26:48.312Z,23.44
2022-10-10T13:28:23.326Z,23.41
2022-10-10T13:29:57.191Z,23.42
2022-10-10T13:31:32.175Z,23.43
2022-10-10T13:33:15.860Z,23.46
2022-10-10T13:34:57.107Z,23.42
2022-10-10T13:36:32.273Z,23.31
2022-10-10T13:38:06.963Z,23.30
2022-10-10T13:39:40.764Z,23.24
2022-10-10T13:41:15.254Z,23.21
2022-10-10T13:42:49.552Z,23.14
2022-10-10T13:44:24.704Z,23.13
2022-10-10T13:46:00.491Z,23.07
2022-10-10T13:47:53.186Z,23.11
2022-10-10T13:49:29.506Z,23.14
2022-10-10T13:51:06.404Z,23.16
2022-10-10T13:52:39.943Z,23.18
2022-10-10T13:54:43.081Z,23.21
2022-10-10T13:56:19.241Z,23.16
2022-10-10T13:57:57.111Z,23.18
2022-10-10T13:59:34.133Z,23.19
2022-10-10T14:01:07.835Z,23.17
2022-10-10T14:02:44.570Z,23.13
2022-10-10T14:04:25.294Z,23.12
2022-10-10T14:06:00.493Z,23.11
2022-10-10T14:07:33.925Z,23.06
2022-10-10T14:09:16.997Z,23.09
2022-10-10T14:10:58.498Z,23.08
2022-10-10T14:12:34.894Z,23.05
2022-10-10T14:14:15.913Z,23.03
2022-10-10T14:15:49.843Z,23.02
2022-10-10T14:17:23.091Z,22.89
2022-10-10T14:18:56.673Z,23.01
2022-10-10T14:20:30.019Z,23.03
2022-10-10T14:22:04.645Z,23.04
2022-10-10T14:23:40.799Z,23.02
2022-10-10T14:25:14.028Z,23.07
2022-10-10T14:26:47.487Z,23.09
2022-10-10T14:28:22.870Z,23.12
2022-10-10T14:29:58.518Z,23.10
2022-10-10T14:31:31.833Z,23.15
2022-10-10T14:33:12.142Z,23.13
2022-10-10T14:34:45.652Z,23.14
2022-10-10T14:36:18.978Z,23.15
2022-10-10T14:37:53.709Z,23.15
2022-10-10T14:39:26.922Z,23.20
2022-10-10T14:41:01.894Z,23.16
2022-10-10T14:42:35.337Z,23.21
2022-10-10T14:44:08.862Z,23.27
2022-10-10T14:45:41.995Z,23.26
2022-10-10T14:47:17.524Z,23.22
2022-10-10T14:48:50.811Z,23.30
2022-10-10T14:50:27.137Z,23.34
2022-10-10T14:52:01.502Z,23.35
2022-10-10T14:53:36.573Z,23.38
2022-10-10T14:55:11.326Z,23.35
2022-10-10T14:57:09.459Z,23.33
2022-10-10T14:58:39.593Z,23.28
2022-10-10T15:00:16.219Z,23.20
2022-10-10T15:01:50.032Z,23.16
2022-10-10T15:03:23.352Z,23.12
2022-10-10T15:04:56.599Z,23.08
2022-10-10T15:06:29.708Z,23.03
2022-10-10T15:08:03.054Z,22.93
2022-10-10T15:09:47.473Z,22.84
2022-10-10T15:11:30.219Z,22.75
2022-10-10T15:13:04.658Z,22.66
2022-10-10T15:14:37.897Z,22.62
2022-10-10T15:16:11.097Z,22.53
2022-10-10T15:17:44.287Z,22.53
2022-10-10T15:19:16.786Z,22.46
2022-10-10T15:20:49.941Z,22.41
2022-10-10T15:22:23.116Z,22.38
2022-10-10T15:23:56.787Z,22.32
2022-10-10T15:25:33.922Z,22.25
2022-10-10T15:27:07.413Z,22.21
2022-10-10T15:28:40.648Z,22.19
2022-10-10T15:30:14.553Z,22.14
2022-10-10T15:31:47.981Z,22.05
2022-10-10T15:33:21.310Z,21.97
2022-10-10T15:34:54.577Z,21.91
2022-10-10T15:36:28.201Z,21.88
2022-10-10T15:38:02.527Z,21.83
2022-10-10T15:39:38.445Z,21.73
2022-10-10T15:41:13.102Z,21.72
2022-10-10T15:42:46.762Z,21.67
2022-10-10T15:44:20.159Z,21.62
2022-10-10T15:45:56.171Z,21.57
2022-10-10T15:47:29.584Z,21.52
2022-10-10T15:49:03.496Z,21.49
2022-10-10T15:50:39.504Z,21.44
2022-10-10T15:52:12.645Z,21.30
2022-10-10T15:53:46.118Z,21.35
2022-10-10T15:55:19.573Z,21.26
2022-10-10T15:56:54.385Z,21.21
2022-10-10T15:58:27.598Z,21.16
2022-10-10T16:00:00.804Z,21.13
2022-10-10T16:01:34.173Z,21.09
2022-10-10T16:03:07.839Z,21.05
2022-10-10T16:04:41.079Z,21.02
2022-10-10T16:06:15.422Z,21.00
2022-10-10T16:07:49.042Z,20.94
2022-10-10T16:09:28.508Z,20.94
2022-10-10T16:11:06.685Z,20.91
2022-10-10T16:12:41.427Z,20.91
2022-10-10T16:14:14.916Z,20.86
2022-10-10T16:15:57.989Z,20.81
2022-10-10T16:17:31.217Z,20.76
2022-10-10T16:19:04.957Z,20.75
2022-10-10T16:20:39.719Z,20.74
2022-10-10T16:22:13.032Z,20.72
2022-10-10T16:23:46.561Z,20.71
2022-10-10T16:25:22.671Z,20.68
2022-10-10T16:26:56.374Z,20.66
2022-10-10T16:28:31.132Z,20.65
2022-10-10T16:30:04.748Z,20.67
2022-10-10T16:31:39.290Z,20.64
2022-10-10T16:33:13.068Z,20.62
2022-10-10T16:34:46.361Z,20.64
2022-10-10T16:36:21.943Z,20.59
2022-10-10T16:37:55.953Z,20.61
2022-10-10T16:39:29.459Z,20.59
2022-10-10T16:41:04.216Z,20.58
2022-10-10T16:42:38.353Z,20.55
2022-10-10T16:44:12.906Z,20.52
2022-10-10T16:45:47.020Z,20.47
2022-10-10T16:47:20.481Z,20.45
2022-10-10T16:48:54.314Z,20.36
2022-10-10T16:50:27.710Z,20.34
2022-10-10T16:52:01.083Z,20.31
2022-10-10T16:53:34.670Z,20.27
2022-10-10T16:55:09.103Z,20.21
2022-10-10T16:56:42.992Z,20.18
2022-10-10T16:58:16.423Z,20.17
2022-10-10T16:59:50.976Z,20.10
2022-10-10T17:01:23.584Z,20.03
2022-10-10T17:02:56.818Z,20.02
2022-10-10T17:04:30.334Z,20.00
2022-10-10T17:06:04.972Z,19.95
2022-10-10T17:07:38.185Z,19.92
2022-10-10T17:09:11.651Z,19.90
2022-10-10T17:10:45.486Z,19.85
2022-10-10T17:12:19.582Z,19.82
2022-10-10T17:13:52.966Z,19.79
2022-10-10T17:15:27.809Z,19.77
2022-10-10T17:17:16.692Z,19.75
2022-10-10T17:18:50.103Z,19.70
2022-10-10T17:20:23.363Z,19.66
2022-10-10T17:21:56.545Z,19.58
2022-10-10T17:23:29.796Z,19.56
2022-10-10T17:25:03.454Z,19.51
2022-10-10T17:26:36.659Z,19.47
2022-10-10T17:28:10.022Z,19.43
2022-10-10T17:29:43.578Z,19.39
2022-10-10T17:31:18.943Z,19.31
2022-10-10T17:32:52.159Z,19.32
2022-10-10T17:34:25.344Z,19.27
2022-10-10T17:35:58.939Z,19.21
2022-10-10T17:37:32.551Z,19.18
2022-10-10T17:39:07.613Z,19.15
2022-10-10T17:40:40.332Z,19.09
2022-10-10T17:42:13.796Z,19.05
2022-10-10T17:43:47.617Z,19.00
2022-10-10T17:45:20.934Z,18.98
2022-10-10T17:46:55.521Z,18.92
2022-10-10T17:48:29.119Z,18.87
2022-10-10T17:50:02.805Z,18.79
2022-10-10T17:51:37.358Z,18.76
2022-10-10T17:53:10.560Z,18.64
2022-10-10T17:54:44.073Z,18.67
2022-10-10T17:56:19.509Z,18.62
2022-10-10T17:57:52.716Z,18.57
2022-10-10T17:59:25.909Z,18.51
2022-10-10T18:01:03.112Z,18.47
2022-10-10T18:02:38.138Z,18.48
2022-10-10T18:04:15.265Z,18.43
2022-10-10T18:05:48.439Z,18.43
2022-10-10T18:07:21.830Z,18.41
2022-10-10T18:08:56.141Z,18.43
2022-10-10T18:10:30.336Z,18.44
2022-10-10T18:12:03.638Z,18.46
2022-10-10T18:13:37.847Z,18.50
2022-10-10T18:15:11.630Z,18.52
2022-10-10T18:16:45.183Z,18.56
2022-10-10T18:18:20.019Z,18.58
2022-10-10T18:19:53.238Z,18.55
2022-10-10T18:21:27.060Z,18.52
2022-10-10T18:23:00.618Z,18.47
2022-10-10T18:24:33.831Z,18.37
2022-10-10T18:26:09.399Z,18.34
2022-10-10T18:27:42.848Z,18.29
2022-10-10T18:29:16.046Z,18.26
2022-10-10T18:30:49.288Z,18.23
2022-10-10T18:32:22.520Z,18.18
2022-10-10T18:33:57.530Z,18.11
2022-10-10T18:35:30.641Z,18.07
2022-10-10T18:37:04.823Z,18.03
2022-10-10T18:38:38.438Z,18.00
2022-10-10T18:40:12.573Z,17.95
2022-10-10T18:41:46.538Z,17.90
2022-10-10T18:43:19.855Z,17.90
2022-10-10T18:44:53.286Z,17.87
2022-10-10T18:46:25.852Z,17.85
2022-10-10T18:47:59.136Z,17.84
2022-10-10T18:49:34.007Z,17.84
2022-10-10T18:51:09.157Z,17.81
2022-10-10T18:52:42.540Z,17.78
2022-10-10T18:54:18.461Z,17.75
2022-10-10T18:55:56.478Z,17.72
2022-10-10T18:57:29.967Z,17.69
2022-10-10T18:59:05.998Z,17.65
2022-10-10T19:00:39.281Z,17.49
2022-10-10T19:02:13.118Z,17.51
2022-10-10T19:03:46.483Z,17.51
2022-10-10T19:05:21.486Z,17.47
2022-10-10T19:06:57.584Z,17.42
2022-10-10T19:08:31.935Z,17.32
2022-10-10T19:10:05.764Z,17.24
2022-10-10T19:11:41.365Z,17.21
2022-10-10T19:13:14.955Z,17.15
2022-10-10T19:14:49.660Z,17.11
2022-10-10T19:16:23.389Z,17.04
2022-10-10T19:17:56.897Z,16.92
2022-10-10T19:19:30.240Z,16.93
2022-10-10T19:21:07.042Z,16.92
2022-10-10T19:22:41.074Z,16.84
2022-10-10T19:24:19.725Z,16.75
2022-10-10T19:25:53.144Z,16.80
2022-10-10T19:27:26.545Z,16.76
2022-10-10T19:29:04.229Z,16.75
2022-10-10T19:30:40.143Z,16.63
2022-10-10T19:32:13.406Z,16.65
2022-10-10T19:33:51.921Z,16.61
2022-10-10T19:35:25.278Z,16.54
2022-10-10T19:37:00.201Z,16.48
2022-10-10T19:38:35.366Z,16.42
2022-10-10T19:40:08.973Z,16.37
2022-10-10T19:41:42.420Z,16.35
2022-10-10T19:43:16.371Z,16.32
2022-10-10T19:44:49.583Z,16.27
2022-10-10T19:46:24.345Z,16.25
2022-10-10T19:47:57.976Z,16.27
2022-10-10T19:49:32.186Z,16.27
2022-10-10T19:51:07.072Z,16.27
2022-10-10T19:52:41.653Z,16.09
2022-10-10T19:54:15.033Z,16.22
2022-10-10T19:55:58.689Z,16.21
2022-10-10T19:57:33.415Z,16.23
2022-10-10T19:59:06.853Z,16.21
2022-10-10T20:00:40.180Z,16.12
2022-10-10T20:02:13.543Z,16.14
2022-10-10T20:03:47.719Z,16.12
2022-10-10T20:05:21.682Z,16.11
2022-10-10T20:06:55.098Z,16.10
2022-10-10T20:08:29.098Z,16.07
2022-10-10T20:10:02.316Z,16.03
2022-10-10T20:11:35.448Z,16.03
2022-10-10T20:13:11.625Z,16.04
2022-10-10T20:14:44.811Z,16.01
2022-10-10T20:16:17.963Z,16.01
2022-10-10T20:17:51.179Z,16.02
2022-10-10T20:19:24.517Z,16.02
2022-10-10T20:20:56.829Z,16.04
2022-10-10T20:22:30.129Z,16.05
2022-10-10T20:24:07.282Z,16.04
2022-10-10T20:25:41.495Z,15.99
2022-10-10T20:27:14.839Z,15.94
2022-10-10T20:28:49.273Z,15.85
2022-10-10T20:30:22.600Z,15.80
2022-10-10T20:31:55.873Z,15.72
2022-10-10T20:33:29.259Z,15.55
2022-10-10T20:35:02.944Z,15.47
2022-10-10T20:36:37.168Z,15.36
2022-10-10T20:38:12.034Z,15.24
2022-10-10T20:39:46.695Z,15.15
2022-10-10T20:41:19.854Z,15.04
2022-10-10T20:42:53.077Z,14.94
2022-10-10T20:44:26.403Z,14.96
2022-10-10T20:46:05.231Z,14.97
2022-10-10T20:47:38.758Z,14.96
2022-10-10T20:49:14.657Z,14.87
2022-10-10T20:50:48.119Z,14.84